Time;durP1;ratioP1;P1;durP2;ratioP2;P2;SDS_P1;SDS_P2;PMS_P1;PMS_P2;Temp;Humidity;BMP_temperature;BMP_pressure;BME280_temperature;BME280_humidity;BME280_pressure;Samples;Min_cycle;Max_cycle;Signal;HPM_P1;HPM_P2
2022/01/03 00:00:44;;;;;;;7.70;3.90;;;;;;;11.27;62.63;98399.13;220752;1277;138688;-61
2022/01/03 00:05:47;;;;;;;6.40;3.50;;;;;;;11.22;62.77;98387.95;221002;1277;138759;-60
2022/01/03 00:10:51;;;;;;;7.40;4.00;;;;;;;11.15;62.77;98385.29;220835;1277;140384;-58
2022/01/03 00:15:55;;;;;;;7.60;4.00;;;;;;;11.10;62.69;98391.70;221095;1277;140412;-57
2022/01/03 00:21:00;;;;;;;7.30;4.20;;;;;;;11.05;62.56;98387.42;221040;1277;138807;-59
2022/01/03 00:26:03;;;;;;;7.50;3.60;;;;;;;11.01;62.84;98386.88;221004;1277;139319;-58
2022/01/03 00:31:06;;;;;;;6.30;3.90;;;;;;;10.95;62.57;98402.00;220969;1277;139186;-58
2022/01/03 00:36:09;;;;;;;8.10;4.00;;;;;;;10.88;62.98;98408.04;220799;1277;139206;-58
2022/01/03 00:41:12;;;;;;;8.70;3.90;;;;;;;10.83;62.82;98396.85;221073;1277;139043;-59
2022/01/03 00:46:17;;;;;;;7.30;4.10;;;;;;;10.82;63.06;98378.70;220852;1277;139164;-57
2022/01/03 00:51:20;;;;;;;6.40;4.00;;;;;;;10.78;62.80;98382.54;220800;1277;139593;-60
2022/01/03 00:56:29;;;;;;;7.30;4.30;;;;;;;10.72;63.08;98383.16;220840;1277;138986;-59
2022/01/03 01:01:36;;;;;;;6.80;3.90;;;;;;;10.66;63.14;98378.95;220567;1278;139330;-58
2022/01/03 01:06:40;;;;;;;5.90;4.20;;;;;;;10.64;63.52;98367.59;220684;1277;138885;-60
2022/01/03 01:11:44;;;;;;;8.20;4.50;;;;;;;10.63;63.21;98367.61;220993;1277;138827;-58
2022/01/03 01:16:50;;;;;;;5.80;3.90;;;;;;;10.60;63.33;98364.47;220709;1277;138595;-60
2022/01/03 01:21:53;;;;;;;6.60;4.20;;;;;;;10.56;63.43;98361.21;220626;1277;138694;-59
2022/01/03 01:32:19;;;;;;;6.80;4.10;;;;;;;10.54;63.18;98359.29;220909;1277;138582;-58
2022/01/03 01:37:23;;;;;;;7.70;4.20;;;;;;;10.53;63.63;98368.91;220759;1277;138908;-60
2022/01/03 01:42:29;;;;;;;8.30;4.70;;;;;;;10.49;63.50;98362.98;220948;1277;138628;-61
2022/01/03 01:47:37;;;;;;;;;;;;;;;10.46;63.74;98353.11;220653;1277;138690;-59
2022/01/03 01:52:44;;;;;;;7.10;3.90;;;;;;;10.42;63.84;98351.44;220653;1279;126028;-60
2022/01/03 01:57:58;;;;;;;6.10;4.20;;;;;;;10.44;63.67;98339.92;220624;1277;140053;-63
2022/01/03 02:03:19;;;;;;;6.90;4.30;;;;;;;10.47;63.77;98335.69;220825;1277;139779;-58
2022/01/03 02:08:33;;;;;;;9.40;4.30;;;;;;;10.47;63.71;98334.41;220784;1277;138364;-60
2022/01/03 02:13:37;;;;;;;6.30;4.00;;;;;;;10.48;63.66;98340.02;220874;1276;138886;-58
2022/01/03 02:18:40;;;;;;;6.60;4.30;;;;;;;10.47;63.64;98342.08;220882;1277;138563;-64
2022/01/03 02:23:44;;;;;;;7.30;4.00;;;;;;;10.48;63.98;98337.00;220608;1277;138587;-58
2022/01/03 02:28:48;;;;;;;6.60;4.20;;;;;;;10.50;63.58;98346.96;221035;1277;138731;-59
2022/01/03 02:33:52;;;;;;;9.80;4.10;;;;;;;10.49;63.79;98333.34;220539;1277;139022;-59
2022/01/03 02:38:55;;;;;;;6.60;4.00;;;;;;;10.47;63.84;98317.06;220587;1279;138610;-58
2022/01/03 02:43:59;;;;;;;8.80;4.40;;;;;;;10.45;63.86;98307.58;220456;1279;139066;-65
2022/01/03 02:49:05;;;;;;;7.30;3.70;;;;;;;10.44;63.70;98306.21;220751;1278;139346;-58
2022/01/03 02:54:10;;;;;;;7.70;3.70;;;;;;;10.47;63.69;98285.15;221158;1277;139273;-65
2022/01/03 02:59:16;;;;;;;4.90;3.50;;;;;;;10.49;63.77;98282.80;220907;1277;139201;-65
2022/01/03 03:04:19;;;;;;;8.80;3.70;;;;;;;10.51;63.96;98286.39;220994;1277;139125;-60
2022/01/03 03:09:22;;;;;;;6.00;3.40;;;;;;;10.51;63.91;98287.27;220974;1277;139192;-60
2022/01/03 03:14:26;;;;;;;6.90;3.70;;;;;;;10.52;63.63;98288.50;220901;1276;139168;-60
2022/01/03 03:19:30;;;;;;;8.90;3.60;;;;;;;10.48;63.57;98295.33;220914;1275;140093;-59
2022/01/03 03:24:34;;;;;;;7.30;4.10;;;;;;;10.45;63.59;98294.48;220940;1277;139146;-62
2022/01/03 03:29:50;;;;;;;5.40;3.80;;;;;;;10.42;63.65;98293.09;220762;1277;139445;-59
2022/01/03 03:34:53;;;;;;;8.20;3.50;;;;;;;10.41;63.62;98271.48;220485;1279;138701;-60
2022/01/03 03:39:56;;;;;;;5.00;3.30;;;;;;;10.38;63.77;98271.18;220656;1277;139879;-58
2022/01/03 03:45:02;;;;;;;6.50;3.40;;;;;;;10.36;63.59;98271.56;221073;1277;139116;-58
2022/01/03 03:50:07;;;;;;;92.00;59.50;;;;;;;10.34;64.02;98273.97;220868;1277;138959;-58
2022/01/03 03:55:10;;;;;;;7.40;3.60;;;;;;;10.42;64.43;98266.16;220829;1277;142217;-59
2022/01/03 04:00:17;;;;;;;6.10;3.70;;;;;;;10.57;64.15;98282.21;220831;1277;139345;-60
2022/01/03 04:05:23;;;;;;;6.90;3.20;;;;;;;10.65;63.82;98274.00;220986;1277;139641;-60
2022/01/03 04:10:26;;;;;;;5.20;3.30;;;;;;;10.66;64.37;98260.45;220821;1278;140691;-63
2022/01/03 04:15:29;;;;;;;16.70;10.90;;;;;;;10.70;63.80;98263.14;220607;1279;139023;-56
2022/01/03 04:20:33;;;;;;;7.50;4.20;;;;;;;10.81;63.86;98262.88;220309;1277;434684;-60
2022/01/03 04:25:36;;;;;;;5.80;3.30;;;;;;;10.81;63.56;98270.14;220985;1277;138678;-62
2022/01/03 04:30:39;;;;;;;7.00;3.20;;;;;;;10.77;63.40;98263.17;220837;1277;139936;-57
2022/01/03 04:35:43;;;;;;;7.30;3.10;;;;;;;10.75;63.54;98258.39;220585;1277;139175;-66
2022/01/03 04:40:46;;;;;;;4.80;3.10;;;;;;;10.70;63.47;98250.05;220828;1277;139628;-59
2022/01/03 04:45:49;;;;;;;4.30;2.70;;;;;;;10.68;63.44;98245.60;220854;1277;139787;-58
2022/01/03 04:50:53;;;;;;;6.10;2.90;;;;;;;10.64;63.20;98233.31;220742;1279;138971;-66
2022/01/03 04:55:56;;;;;;;46.40;32.40;;;;;;;10.61;63.62;98229.96;220463;1278;139796;-58
2022/01/03 05:01:00;;;;;;;5.80;3.00;;;;;;;10.66;63.50;98230.69;220754;1277;139012;-58
2022/01/03 05:06:04;;;;;;;4.60;2.60;;;;;;;10.65;63.34;98217.20;220817;1277;140164;-60
2022/01/03 05:11:07;;;;;;;5.30;2.90;;;;;;;10.66;63.20;98214.19;221000;1277;138777;-59
2022/01/03 05:16:10;;;;;;;4.90;2.80;;;;;;;10.66;63.30;98215.95;220981;1277;139242;-60
2022/01/03 05:21:15;;;;;;;54.50;35.20;;;;;;;10.64;63.35;98211.79;221002;1277;138963;-58
2022/01/03 05:26:19;;;;;;;8.70;3.40;;;;;;;10.74;63.47;98198.67;220691;1277;140276;-58
2022/01/03 05:31:22;;;;;;;4.00;2.60;;;;;;;10.78;63.49;98188.60;220906;1277;139507;-61
2022/01/03 05:36:27;;;;;;;6.60;2.50;;;;;;;10.77;63.14;98181.20;220906;1277;139081;-60
2022/01/03 05:41:32;;;;;;;3.50;2.10;;;;;;;10.74;63.00;98178.63;221152;1277;139582;-60
2022/01/03 05:46:36;;;;;;;7.00;2.40;;;;;;;10.74;63.29;98184.46;220675;1277;138763;-60
2022/01/03 05:51:39;;;;;;;6.10;2.60;;;;;;;10.74;63.33;98183.02;221144;1277;139582;-59
2022/01/03 05:56:42;;;;;;;4.30;2.00;;;;;;;10.72;63.41;98174.67;220937;1277;138998;-57
2022/01/03 06:01:46;;;;;;;3.50;2.00;;;;;;;10.70;63.82;98173.56;220835;1277;139280;-58
2022/01/03 06:07:10;;;;;;;7.00;2.50;;;;;;;10.75;63.85;98176.05;220938;1277;139221;-60
2022/01/03 06:12:20;;;;;;;3.70;1.80;;;;;;;10.75;64.28;98177.10;220953;1277;139103;-60
2022/01/03 06:17:26;;;;;;;6.40;2.00;;;;;;;10.73;64.43;98175.11;220803;1277;139349;-61
2022/01/03 06:22:30;;;;;;;5.40;2.40;;;;;;;10.64;64.60;98170.33;220607;1280;139320;-64
2022/01/03 06:27:36;;;;;;;6.70;2.20;;;;;;;10.52;64.77;98159.67;220940;1277;138502;-61
2022/01/03 06:32:40;;;;;;;7.20;2.00;;;;;;;10.47;64.92;98161.36;220876;1278;138971;-60
2022/01/03 06:37:43;;;;;;;5.30;2.10;;;;;;;10.45;65.04;98167.20;221006;1277;139679;-59
2022/01/03 06:42:52;;;;;;;6.70;2.30;;;;;;;10.45;65.28;98167.14;220667;1277;138830;-58
2022/01/03 06:47:57;;;;;;;4.30;2.60;;;;;;;10.45;65.75;98175.34;221068;1277;138527;-61
2022/01/03 06:53:01;;;;;;;6.40;2.30;;;;;;;10.44;65.76;98180.73;220763;1277;139276;-61
2022/01/03 06:58:04;;;;;;;4.10;2.10;;;;;;;10.43;65.94;98187.70;221031;1277;139955;-60
2022/01/03 07:03:07;;;;;;;3.90;2.20;;;;;;;10.38;66.06;98195.67;220869;1277;139057;-59
2022/01/03 07:08:11;;;;;;;5.40;2.30;;;;;;;10.40;66.32;98196.27;221011;1277;139129;-62
2022/01/03 07:13:14;;;;;;;4.60;2.60;;;;;;;10.41;66.18;98189.55;220886;1277;138654;-60
2022/01/03 07:23:40;;;;;;;4.10;2.10;;;;;;;10.37;66.59;98174.85;220633;1277;140030;-59
2022/01/03 07:28:43;;;;;;;5.60;2.20;;;;;;;10.32;66.46;98181.03;220876;1277;138504;-62
2022/01/03 07:33:47;;;;;;;5.40;2.50;;;;;;;10.32;66.61;98175.20;220799;1277;140782;-59
2022/01/03 07:38:50;;;;;;;6.30;2.30;;;;;;;10.34;66.56;98173.78;220913;1277;139769;-60
2022/01/03 07:43:53;;;;;;;5.60;2.40;;;;;;;10.37;66.85;98181.41;221151;1277;138835;-58
2022/01/03 07:48:56;;;;;;;6.50;2.30;;;;;;;10.40;66.79;98192.66;220950;1277;139388;-58
2022/01/03 07:53:59;;;;;;;6.40;2.60;;;;;;;10.38;66.92;98200.77;221187;1277;139424;-58
2022/01/03 07:59:03;;;;;;;5.20;2.30;;;;;;;10.32;67.22;98205.71;221118;1277;142226;-61
2022/01/03 08:04:05;;;;;;;6.50;2.40;;;;;;;10.28;67.30;98222.31;220901;1277;139295;-60
2022/01/03 08:09:24;;;;;;;5.80;3.00;;;;;;;10.26;67.43;98215.34;220971;1277;140938;-60
2022/01/03 08:14:27;;;;;;;5.90;2.70;;;;;;;10.22;67.42;98220.09;221018;1277;138842;-56
2022/01/03 08:19:31;;;;;;;5.70;2.20;;;;;;;10.25;67.27;98220.38;221019;1277;139854;-62
2022/01/03 08:24:34;;;;;;;4.20;2.10;;;;;;;10.30;67.37;98220.79;220884;1277;138746;-59
2022/01/03 08:29:37;;;;;;;6.00;2.10;;;;;;;10.33;67.20;98217.70;221126;1277;138830;-60
2022/01/03 08:34:40;;;;;;;9.60;2.30;;;;;;;10.38;67.25;98214.66;220810;1277;140763;-59
2022/01/03 08:39:43;;;;;;;5.80;2.30;;;;;;;10.44;67.22;98211.25;221027;1277;139490;-58
2022/01/03 08:44:47;;;;;;;6.20;2.40;;;;;;;10.47;66.90;98216.44;221230;1277;138928;-57
2022/01/03 08:49:50;;;;;;;17.20;11.10;;;;;;;10.50;66.96;98230.84;220929;1277;140610;-59
2022/01/03 08:54:55;;;;;;;6.40;3.10;;;;;;;10.59;67.04;98235.42;220888;1277;139686;-60
2022/01/03 08:59:58;;;;;;;6.70;2.60;;;;;;;10.62;66.29;98225.41;221075;1277;139794;-57
2022/01/03 09:05:02;;;;;;;4.10;2.20;;;;;;;10.64;66.77;98222.96;220673;1277;140077;-60
2022/01/03 09:10:06;;;;;;;6.00;2.20;;;;;;;10.66;66.41;98227.45;221002;1277;138426;-58
2022/01/03 09:15:09;;;;;;;5.10;2.10;;;;;;;10.67;65.69;98222.42;220939;1277;138850;-59
2022/01/03 09:20:12;;;;;;;4.50;1.90;;;;;;;10.65;65.69;98226.06;220901;1277;138769;-58
2022/01/03 09:30:45;;;;;;;4.40;1.70;;;;;;;10.70;65.77;98235.88;220832;1277;138912;-61
2022/01/03 09:35:51;;;;;;;3.60;2.00;;;;;;;10.74;65.44;98231.30;220789;1277;138448;-57
2022/01/03 09:41:00;;;;;;;4.20;2.00;;;;;;;10.77;65.18;98229.44;220955;1277;138856;-58
2022/01/03 09:46:04;;;;;;;5.20;2.20;;;;;;;10.84;65.05;98230.52;220834;1277;139761;-61
2022/01/03 09:51:11;;;;;;;5.00;2.40;;;;;;;10.94;65.10;98226.78;220771;1277;139485;-58
2022/01/03 09:56:16;;;;;;;4.30;2.20;;;;;;;11.00;65.07;98221.30;220712;1279;139676;-58
2022/01/03 10:01:19;;;;;;;6.40;2.20;;;;;;;11.06;64.62;98216.21;220822;1277;140152;-61
2022/01/03 10:06:25;;;;;;;4.60;2.20;;;;;;;11.10;64.70;98209.31;220963;1277;140343;-60
2022/01/03 10:11:29;;;;;;;4.70;2.10;;;;;;;11.15;64.68;98209.70;221130;1277;139189;-60
2022/01/03 10:16:32;;;;;;;3.60;2.10;;;;;;;11.20;64.41;98207.36;220910;1277;139019;-60
2022/01/03 10:21:51;;;;;;;5.70;2.30;;;;;;;11.24;64.46;98208.47;221026;1277;139250;-60
2022/01/03 10:26:56;;;;;;;4.90;2.20;;;;;;;11.26;64.42;98211.28;220568;1280;139555;-59
2022/01/03 10:32:02;;;;;;;4.90;2.00;;;;;;;11.22;63.81;98209.70;220945;1277;139432;-58
2022/01/03 10:37:11;;;;;;;6.30;1.80;;;;;;;11.20;63.86;98214.29;220956;1277;138771;-60
2022/01/03 10:42:16;;;;;;;4.60;1.90;;;;;;;11.24;63.66;98227.09;220829;1277;139468;-58
2022/01/03 10:47:33;;;;;;;4.00;2.20;;;;;;;11.22;63.68;98221.04;221078;1277;138701;-58
2022/01/03 10:52:39;;;;;;;5.70;2.20;;;;;;;11.20;63.95;98220.28;220830;1277;139522;-59
2022/01/03 10:58:01;;;;;;;14.90;9.90;;;;;;;11.15;63.94;98203.68;220924;1277;138625;-62
2022/01/03 11:03:40;;;;;;;5.40;1.80;;;;;;;11.18;63.87;98200.77;220634;1277;139398;-60
2022/01/03 11:14:07;;;;;;;5.00;2.00;;;;;;;11.30;63.76;98181.54;220847;1277;139914;-60
2022/01/03 11:19:11;;;;;;;3.90;2.00;;;;;;;11.28;63.71;98173.33;221010;1277;138668;-58
2022/01/03 11:24:14;;;;;;;4.40;1.80;;;;;;;11.25;63.68;98170.05;221026;1277;139164;-61
2022/01/03 11:29:17;;;;;;;4.30;2.20;;;;;;;11.15;63.34;98179.52;221098;1277;139689;-60
2022/01/03 11:34:23;;;;;;;4.80;2.10;;;;;;;11.08;63.58;98177.89;220865;1277;139273;-61
2022/01/03 11:39:36;;;;;;;8.40;1.90;;;;;;;11.00;63.16;98166.48;220797;1277;139089;-61
2022/01/03 11:44:39;;;;;;;5.00;2.00;;;;;;;10.97;63.48;98171.12;220872;1277;139285;-60
2022/01/03 11:49:43;;;;;;;3.60;2.00;;;;;;;10.96;63.60;98172.68;220879;1277;139312;-58
2022/01/03 11:54:46;;;;;;;8.00;2.10;;;;;;;10.91;63.47;98171.28;220859;1277;139000;-59
2022/01/03 12:05:40;;;;;;;7.40;2.20;;;;;;;10.86;63.24;98171.13;220172;1277;139796;-60
2022/01/03 12:10:44;;;;;;;4.90;1.70;;;;;;;10.85;63.30;98161.64;220781;1278;139313;-57
2022/01/03 12:16:04;;;;;;;5.30;2.20;;;;;;;10.84;62.94;98157.07;220771;1277;138766;-59
2022/01/03 12:21:07;;;;;;;7.30;2.20;;;;;;;10.86;62.37;98154.25;220763;1277;139403;-58
2022/01/03 12:26:11;;;;;;;7.20;1.90;;;;;;;10.92;62.29;98146.15;220699;1277;139603;-60
2022/01/03 12:31:14;;;;;;;4.70;1.70;;;;;;;10.97;61.92;98143.26;220778;1277;139857;-60
2022/01/03 12:36:19;;;;;;;5.60;1.70;;;;;;;11.03;61.34;98136.91;221006;1277;139290;-59
2022/01/03 12:41:43;;;;;;;6.70;1.60;;;;;;;11.11;61.21;98143.24;221068;1277;139251;-57
2022/01/03 12:47:18;;;;;;;3.10;1.30;;;;;;;11.12;60.25;98141.00;221114;1277;139035;-60
2022/01/03 12:52:21;;;;;;;3.20;1.10;;;;;;;11.13;60.35;98141.69;220889;1277;139542;-62
2022/01/03 12:57:30;;;;;;;5.50;1.50;;;;;;;11.13;59.88;98137.61;220940;1276;141620;-58
2022/01/03 13:02:33;;;;;;;4.60;1.30;;;;;;;11.10;59.96;98144.36;220810;1277;139693;-60
2022/01/03 13:07:36;;;;;;;5.40;1.50;;;;;;;11.10;59.77;98139.79;221008;1277;139509;-57
2022/01/03 13:12:43;;;;;;;8.00;1.80;;;;;;;11.06;59.45;98147.52;220869;1277;139091;-59
2022/01/03 13:17:46;;;;;;;6.00;2.10;;;;;;;10.96;59.45;98162.67;221028;1277;139080;-61
2022/01/03 13:22:50;;;;;;;7.80;2.20;;;;;;;10.84;59.53;98171.05;221023;1277;139193;-58
2022/01/03 13:27:53;;;;;;;10.60;3.40;;;;;;;10.76;59.82;98172.26;220978;1277;139206;-58
2022/01/03 13:32:57;;;;;;;5.90;2.50;;;;;;;10.72;59.86;98175.01;220723;1277;139280;-58
2022/01/03 13:38:15;;;;;;;9.80;2.90;;;;;;;10.65;60.09;98182.70;220998;1277;140003;-59
2022/01/03 13:43:20;;;;;;;5.60;2.40;;;;;;;10.60;59.85;98191.19;220638;1277;139649;-58
2022/01/03 13:53:53;;;;;;;6.70;2.10;;;;;;;10.65;60.55;98196.35;221007;1277;139614;-60
2022/01/03 13:58:56;;;;;;;7.50;2.30;;;;;;;10.75;59.96;98200.22;220950;1277;139234;-60
2022/01/03 14:03:59;;;;;;;5.50;2.00;;;;;;;10.78;60.15;98198.19;220861;1277;139621;-59
2022/01/03 14:09:18;;;;;;;7.90;2.40;;;;;;;10.80;59.86;98202.77;221077;1276;139287;-61
2022/01/03 14:14:44;;;;;;;5.10;2.10;;;;;;;10.79;59.76;98224.51;220800;1277;139400;-60
2022/01/03 14:19:58;;;;;;;7.20;2.10;;;;;;;10.76;59.69;98228.68;220791;1277;139334;-59
2022/01/03 14:25:04;;;;;;;6.10;1.80;;;;;;;10.74;59.17;98229.88;221164;1276;138703;-60
2022/01/03 14:30:22;;;;;;;5.20;1.50;;;;;;;10.73;59.65;98240.94;221082;1277;139113;-59
2022/01/03 14:35:44;;;;;;;6.80;1.70;;;;;;;10.68;59.14;98240.24;220975;1277;138961;-60
2022/01/03 14:40:52;;;;;;;5.30;1.60;;;;;;;10.63;59.25;98239.38;221084;1277;142349;-58
2022/01/03 14:46:06;;;;;;;7.90;1.70;;;;;;;10.60;59.29;98249.34;220991;1277;139025;-60
2022/01/03 14:51:12;;;;;;;4.90;1.50;;;;;;;10.55;59.28;98259.14;221013;1277;138597;-62
2022/01/03 14:56:26;;;;;;;5.60;2.20;;;;;;;10.50;59.15;98265.17;221059;1277;138913;-57
2022/01/03 15:01:29;;;;;;;5.90;2.00;;;;;;;10.48;59.33;98277.75;220862;1277;138903;-59
2022/01/03 15:06:33;;;;;;;4.70;2.20;;;;;;;10.45;59.36;98289.66;221046;1277;138958;-61
2022/01/03 15:11:37;;;;;;;5.60;2.30;;;;;;;10.41;59.34;98295.65;220865;1277;139002;-59
2022/01/03 15:16:40;;;;;;;6.60;2.10;;;;;;;10.39;59.45;98301.83;220931;1277;140064;-57
2022/01/03 15:21:44;;;;;;;5.10;2.00;;;;;;;10.37;59.35;98302.30;220919;1277;139479;-59
2022/01/03 15:26:47;;;;;;;7.80;2.40;;;;;;;10.36;59.58;98298.68;220600;1279;139208;-61
2022/01/03 15:31:50;;;;;;;10.50;2.60;;;;;;;10.40;59.38;98313.26;220864;1277;139210;-59
2022/01/03 15:36:53;;;;;;;6.40;2.20;;;;;;;10.42;59.36;98318.82;220691;1277;139029;-57
2022/01/03 15:41:57;;;;;;;7.00;2.20;;;;;;;10.43;59.43;98324.95;220655;1277;138547;-60
2022/01/03 15:47:00;;;;;;;5.70;2.00;;;;;;;10.44;59.32;98338.91;221130;1277;138887;-60
2022/01/03 15:52:03;;;;;;;10.60;2.80;;;;;;;10.47;59.58;98342.55;220672;1278;140601;-61
2022/01/03 15:57:06;;;;;;;4.00;2.10;;;;;;;10.47;59.22;98348.44;220977;1277;138865;-61
2022/01/03 16:02:09;;;;;;;5.90;2.40;;;;;;;10.46;59.42;98344.61;220993;1277;140112;-60
2022/01/03 16:07:13;;;;;;;9.30;4.40;;;;;;;10.43;59.36;98356.84;220872;1277;139106;-58
2022/01/03 16:12:17;;;;;;;8.50;3.60;;;;;;;10.33;59.34;98363.25;221130;1277;139068;-59
2022/01/03 16:17:20;;;;;;;9.20;3.50;;;;;;;10.21;59.93;98353.64;220906;1277;139345;-61
2022/01/03 16:22:26;;;;;;;39.30;23.60;;;;;;;10.15;59.79;98349.09;220713;1277;138827;-59
2022/01/03 16:27:29;;;;;;;12.30;4.50;;;;;;;10.21;60.42;98345.09;220885;1277;139129;-62
2022/01/03 16:32:32;;;;;;;8.30;2.80;;;;;;;10.23;59.89;98344.13;221074;1277;139106;-63
2022/01/03 16:37:36;;;;;;;9.90;2.80;;;;;;;10.18;59.76;98349.54;220970;1277;139209;-63
2022/01/03 16:42:39;;;;;;;8.50;2.80;;;;;;;10.17;59.71;98350.73;220972;1277;138605;-62
2022/01/03 16:47:42;;;;;;;8.10;2.50;;;;;;;10.16;59.65;98350.97;220893;1277;140953;-62
2022/01/03 16:52:45;;;;;;;6.20;2.40;;;;;;;10.14;59.47;98354.48;221001;1277;139101;-59
2022/01/03 16:57:48;;;;;;;9.10;2.50;;;;;;;10.12;59.30;98355.52;220902;1277;139185;-59
2022/01/03 17:02:52;;;;;;;8.60;2.70;;;;;;;10.12;59.60;98362.21;220966;1277;139276;-61
2022/01/03 17:07:57;;;;;;;83.60;51.20;;;;;;;10.11;59.27;98369.55;220758;1277;139147;-60
2022/01/03 17:13:00;;;;;;;10.50;4.00;;;;;;;10.15;59.89;98375.30;220932;1277;139203;-60
2022/01/03 17:18:03;;;;;;;12.20;3.60;;;;;;;10.17;59.33;98376.55;221055;1277;139472;-62
2022/01/03 17:23:06;;;;;;;12.40;3.70;;;;;;;10.14;59.05;98373.59;220960;1277;139173;-59
2022/01/03 17:28:11;;;;;;;12.00;3.50;;;;;;;10.11;59.14;98378.42;220909;1277;138985;-62
2022/01/03 17:33:14;;;;;;;10.80;3.90;;;;;;;10.10;59.34;98375.16;220207;1277;139510;-62
2022/01/03 17:38:17;;;;;;;10.20;4.40;;;;;;;10.05;59.16;98375.31;220889;1277;138794;-63
2022/01/03 17:43:21;;;;;;;9.50;4.00;;;;;;;10.01;59.12;98380.20;221058;1277;139090;-60
2022/01/03 17:48:24;;;;;;;12.90;5.20;;;;;;;9.92;59.10;98381.87;221079;1275;139036;-61
2022/01/03 17:53:27;;;;;;;13.10;5.40;;;;;;;9.86;59.24;98374.73;220851;1277;138925;-60
2022/01/03 17:58:35;;;;;;;17.20;6.10;;;;;;;9.79;59.34;98377.70;220922;1277;138978;-61
2022/01/03 18:03:38;;;;;;;15.60;6.00;;;;;;;9.74;59.46;98368.46;220860;1277;139780;-60
2022/01/03 18:08:41;;;;;;;12.40;5.80;;;;;;;9.74;59.41;98363.14;220946;1277;139579;-59
2022/01/03 18:13:44;;;;;;;13.50;5.20;;;;;;;9.71;59.42;98361.91;221022;1277;139917;-62
2022/01/03 18:18:49;;;;;;;14.60;5.60;;;;;;;9.72;59.57;98362.05;220906;1277;139391;-59
2022/01/03 18:23:52;;;;;;;14.00;5.90;;;;;;;9.71;59.64;98362.98;221094;1277;139788;-61
2022/01/03 18:28:55;;;;;;;14.20;6.40;;;;;;;9.71;59.67;98362.24;220943;1277;139187;-59
2022/01/03 18:33:58;;;;;;;12.70;6.20;;;;;;;9.72;59.67;98364.16;220880;1277;139078;-62
2022/01/03 18:39:05;;;;;;;99.20;55.60;;;;;;;9.75;59.81;98363.26;220858;1277;139535;-61
2022/01/03 18:44:08;;;;;;;18.00;7.60;;;;;;;9.81;59.94;98360.39;220915;1277;139401;-59
2022/01/03 18:49:11;;;;;;;14.90;6.50;;;;;;;9.77;59.78;98356.35;220692;1277;139149;-61
2022/01/03 18:54:16;;;;;;;17.90;7.00;;;;;;;9.76;59.76;98356.08;220450;1277;139366;-59
2022/01/03 18:59:20;;;;;;;14.50;6.60;;;;;;;9.71;59.72;98356.95;221082;1277;139151;-61
2022/01/03 19:04:23;;;;;;;14.20;7.10;;;;;;;9.67;59.71;98356.54;220986;1277;139013;-58
2022/01/03 19:09:27;;;;;;;17.90;7.40;;;;;;;9.65;59.72;98353.31;220831;1277;138749;-63
2022/01/03 19:14:30;;;;;;;19.00;7.30;;;;;;;9.65;59.77;98354.23;220805;1276;139471;-59
2022/01/03 19:19:34;;;;;;;16.30;6.70;;;;;;;9.64;59.67;98350.17;220865;1277;138959;-62
2022/01/03 19:24:37;;;;;;;97.60;57.10;;;;;;;9.57;59.79;98347.83;221023;1277;141728;-61
2022/01/03 19:29:40;;;;;;;19.60;9.10;;;;;;;9.58;60.00;98345.61;220808;1277;140447;-59
2022/01/03 19:40:05;;;;;;;13.40;6.60;;;;;;;9.55;59.71;98349.20;220844;1277;138909;-61
2022/01/03 19:45:11;;;;;;;13.90;6.50;;;;;;;9.52;59.58;98345.36;220816;1277;140485;-61
2022/01/03 19:50:15;;;;;;;13.80;6.10;;;;;;;9.51;59.89;98339.39;220575;1279;139253;-60
2022/01/03 19:55:18;;;;;;;16.90;6.30;;;;;;;9.52;59.73;98341.16;220521;1277;139274;-58
2022/01/03 20:00:21;;;;;;;14.40;5.60;;;;;;;9.49;59.53;98338.82;220635;1277;142929;-62
2022/01/03 20:05:26;;;;;;;13.90;6.20;;;;;;;9.47;59.58;98335.58;220778;1277;138933;-59
2022/01/03 20:10:30;;;;;;;12.10;5.20;;;;;;;9.49;59.60;98333.38;220715;1277;138936;-60
2022/01/03 20:15:34;;;;;;;14.60;5.20;;;;;;;9.49;59.53;98330.88;220507;1277;139543;-61
2022/01/03 20:20:43;;;;;;;14.70;4.90;;;;;;;9.52;59.39;98328.05;220406;1277;140358;-58
2022/01/03 20:25:46;;;;;;;11.10;5.20;;;;;;;9.53;59.12;98329.04;220587;1277;139591;-63
2022/01/03 20:30:49;;;;;;;13.70;5.50;;;;;;;9.53;59.34;98331.83;220940;1277;139011;-63
2022/01/03 20:35:52;;;;;;;13.30;4.70;;;;;;;9.55;59.17;98313.64;221047;1277;139337;-61
2022/01/03 20:40:57;;;;;;;12.50;5.10;;;;;;;9.55;59.09;98315.58;220260;1277;140316;-64
2022/01/03 20:46:00;;;;;;;11.50;5.10;;;;;;;9.56;59.21;98314.61;220806;1277;139020;-63
2022/01/03 20:51:03;;;;;;;15.50;5.20;;;;;;;9.57;59.05;98308.16;221075;1277;138955;-61
2022/01/03 20:56:06;;;;;;;14.50;5.20;;;;;;;9.63;59.37;98300.15;220899;1277;138930;-62
2022/01/03 21:01:09;;;;;;;11.50;4.60;;;;;;;9.70;59.14;98296.64;220899;1277;139648;-59
2022/01/03 21:06:13;;;;;;;10.80;4.00;;;;;;;9.73;59.08;98294.86;220621;1277;139066;-63
2022/01/03 21:11:16;;;;;;;13.30;4.50;;;;;;;9.74;58.72;98288.24;220922;1277;138460;-59
2022/01/03 21:16:19;;;;;;;22.10;11.00;;;;;;;9.80;59.46;98287.45;220917;1277;139041;-60
2022/01/03 21:21:22;;;;;;;13.60;5.20;;;;;;;10.01;59.44;98282.02;221037;1277;139730;-65
2022/01/03 21:26:25;;;;;;;13.60;4.80;;;;;;;9.97;58.57;98284.65;220937;1277;139499;-63
2022/01/03 21:31:28;;;;;;;11.10;4.60;;;;;;;9.89;58.38;98278.97;220966;1277;138867;-58
2022/01/03 21:36:31;;;;;;;13.20;5.00;;;;;;;9.84;58.24;98270.31;220970;1277;138917;-58
2022/01/03 21:41:34;;;;;;;12.00;5.00;;;;;;;9.83;58.11;98278.39;220519;1278;139498;-62
2022/01/03 21:46:38;;;;;;;13.90;4.60;;;;;;;9.82;58.38;98270.68;220540;1277;138653;-59
2022/01/03 21:51:41;;;;;;;14.40;5.60;;;;;;;9.81;58.09;98269.32;220756;1277;141609;-58
2022/01/03 21:56:44;;;;;;;11.10;5.10;;;;;;;9.82;58.13;98260.23;220995;1277;139657;-58
2022/01/03 22:01:47;;;;;;;14.20;5.20;;;;;;;9.81;58.12;98250.70;220986;1277;139743;-59
2022/01/03 22:06:51;;;;;;;11.80;4.90;;;;;;;9.79;57.84;98242.54;221142;1277;141811;-59
2022/01/03 22:11:54;;;;;;;18.90;5.80;;;;;;;9.76;57.66;98242.94;221096;1277;139300;-58
2022/01/03 22:16:57;;;;;;;15.30;6.10;;;;;;;9.74;57.86;98241.11;220940;1277;138889;-60
2022/01/03 22:22:00;;;;;;;13.40;6.00;;;;;;;9.71;57.62;98247.54;221096;1277;139457;-62
2022/01/03 22:27:04;;;;;;;12.00;5.20;;;;;;;9.69;57.65;98234.34;221168;1277;139537;-59
2022/01/03 22:32:08;;;;;;;11.10;4.70;;;;;;;9.65;57.42;98232.87;220995;1277;138958;-57
2022/01/03 22:37:14;;;;;;;11.60;4.80;;;;;;;9.62;57.45;98236.95;221025;1277;138937;-63
2022/01/03 22:42:17;;;;;;;17.70;8.00;;;;;;;9.61;57.30;98241.48;221069;1277;138895;-57
2022/01/03 22:47:20;;;;;;;13.00;5.10;;;;;;;9.60;57.55;98225.59;221018;1277;139117;-61
2022/01/03 22:52:23;;;;;;;10.80;4.70;;;;;;;9.59;57.76;98221.27;221042;1277;139113;-60
2022/01/03 22:57:26;;;;;;;13.70;5.10;;;;;;;9.57;57.42;98208.85;220928;1277;139131;-63
2022/01/03 23:02:29;;;;;;;12.40;4.60;;;;;;;9.53;57.26;98207.02;221063;1277;139422;-61
2022/01/03 23:07:33;;;;;;;13.00;4.30;;;;;;;9.52;57.55;98208.67;221007;1277;139008;-62
2022/01/03 23:12:41;;;;;;;12.20;5.00;;;;;;;9.51;57.48;98202.20;220938;1277;139548;-60
2022/01/03 23:17:44;;;;;;;9.30;4.10;;;;;;;9.48;57.48;98202.55;220934;1277;139320;-63
2022/01/03 23:22:47;;;;;;;9.80;4.40;;;;;;;9.48;57.70;98208.38;221042;1277;139415;-58
2022/01/03 23:27:51;;;;;;;8.90;4.10;;;;;;;9.52;57.58;98197.90;220642;1277;138881;-58
2022/01/03 23:32:54;;;;;;;11.60;4.40;;;;;;;9.52;57.84;98193.08;220564;1277;139229;-59
2022/01/03 23:37:58;;;;;;;10.60;4.30;;;;;;;9.51;57.84;98191.23;220883;1277;140564;-59
2022/01/03 23:43:02;;;;;;;7.90;3.50;;;;;;;9.52;57.88;98185.34;220783;1277;139420;-60
2022/01/03 23:48:07;;;;;;;10.80;3.90;;;;;;;9.52;57.98;98187.98;221038;1277;139427;-59
2022/01/03 23:53:10;;;;;;;8.10;3.20;;;;;;;9.52;57.86;98185.08;221038;1277;138851;-62
2022/01/03 23:58:13;;;;;;;8.20;3.30;;;;;;;9.49;57.73;98176.29;221098;1277;138388;-58
